Time;durP1;ratioP1;P1;durP2;ratioP2;P2;SDS_P1;SDS_P2;PMS_P1;PMS_P2;Temp;Humidity;BMP_temperature;BMP_pressure;BME280_temperature;BME280_humidity;BME280_pressure;Samples;Min_cycle;Max_cycle;Signal;HPM_P1;HPM_P2
2022/10/01 00:00:25;;;;;;;;;;;;;;;11.10;85.04;100263.38;5038451;28;19925;-67
2022/10/01 00:02:50;;;;;;;;;;;;;;;11.10;84.56;100258.16;5045275;28;19924;-67
2022/10/01 00:05:15;;;;;;;;;;;;;;;11.11;84.32;100251.22;5039611;28;19917;-67
2022/10/01 00:07:42;;;;;;;;;;;;;;;11.11;85.15;100248.63;5039866;28;19917;-67
2022/10/01 00:10:09;;;;;;;;;;;;;;;11.10;84.58;100232.09;5032588;28;20009;-67
2022/10/01 00:12:35;;;;;;;;;;;;;;;11.11;84.83;100232.97;5040601;28;19917;-66
2022/10/01 00:15:02;;;;;;;;;;;;;;;11.11;84.57;100235.59;5030720;28;19913;-67
2022/10/01 00:17:27;;;;;;;;;;;;;;;11.11;85.17;100219.94;5037203;28;19939;-67
2022/10/01 00:19:52;;;;;;;;;;;;;;;11.10;85.83;100215.56;5031059;28;20364;-68
2022/10/01 00:22:17;;;;;;;;;;;;;;;11.06;85.25;100206.81;5032827;28;19999;-67
2022/10/01 00:24:44;;;;;;;;;;;;;;;11.06;85.22;100192.94;5031308;28;19909;-67
2022/10/01 00:27:09;;;;;;;;;;;;;;;11.04;85.43;100199.88;5033719;28;19929;-75
2022/10/01 00:29:35;;;;;;;;;;;;;;;11.02;86.26;100194.66;5044472;28;20303;-75
2022/10/01 00:32:00;;;;;;;;;;;;;;;11.02;85.64;100205.06;5037183;28;19967;-75
2022/10/01 00:34:26;;;;;;;;;;;;;;;11.03;85.83;100201.59;5034194;28;19959;-75
2022/10/01 00:36:52;;;;;;;;;;;;;;;11.03;85.62;100201.59;5033606;28;19952;-75
2022/10/01 00:39:17;;;;;;;;;;;;;;;11.06;85.73;100177.28;5037967;28;19951;-75
2022/10/01 00:41:42;;;;;;;;;;;;;;;11.07;85.73;100174.69;5038119;28;19975;-75
2022/10/01 00:44:43;;;;;;;;;;;;;;;11.08;85.79;100209.44;5022144;28;19925;-75
2022/10/01 00:47:27;;;;;;;;;;;;;;;11.08;86.05;100199.91;4999335;28;19921;-75
2022/10/01 00:49:55;;;;;;;;;;;;;;;11.10;85.57;100192.09;5018513;28;19909;-74
2022/10/01 00:52:23;;;;;;;;;;;;;;;11.12;86.17;100195.59;5022344;28;19955;-75
2022/10/01 00:54:54;;;;;;;;;;;;;;;11.14;85.38;100201.72;5021753;28;19920;-75
2022/10/01 00:57:20;;;;;;;;;;;;;;;11.14;85.79;100212.16;5020573;28;20514;-74
2022/10/01 00:59:46;;;;;;;;;;;;;;;11.13;85.79;100194.75;5021188;28;19929;-75
2022/10/01 01:02:11;;;;;;;;;;;;;;;11.13;86.57;100195.59;5022147;28;20357;-75
2022/10/01 01:04:38;;;;;;;;;;;;;;;11.11;87.04;100184.31;5020149;28;19917;-74
2022/10/01 01:07:05;;;;;;;;;;;;;;;11.11;86.82;100206.91;5022264;28;19925;-76
2022/10/01 01:09:33;;;;;;;;;;;;;;;11.10;87.77;100202.53;5021619;28;19932;-76
2022/10/01 01:12:07;;;;;;;;;;;;;;;11.08;87.27;100205.13;5022561;28;20384;-75
2022/10/01 01:14:35;;;;;;;;;;;;;;;11.06;87.37;100175.53;5021358;28;19925;-76
2022/10/01 01:17:07;;;;;;;;;;;;;;;11.03;87.67;100167.69;5020666;28;20012;-75
2022/10/01 01:19:36;;;;;;;;;;;;;;;11.01;87.61;100171.13;5019528;28;19924;-75
2022/10/01 01:22:03;;;;;;;;;;;;;;;10.99;87.68;100149.41;5021084;28;19929;-75
2022/10/01 01:24:39;;;;;;;;;;;;;;;10.99;87.48;100116.38;5028295;28;19916;-75
2022/10/01 01:27:05;;;;;;;;;;;;;;;10.96;88.69;100093.78;5035400;28;19921;-67
2022/10/01 01:29:30;;;;;;;;;;;;;;;10.93;88.38;100077.22;5033641;28;19970;-67
2022/10/01 01:32:00;;;;;;;;;;;;;;;10.89;89.58;100060.69;5042404;28;19920;-67
2022/10/01 01:34:27;;;;;;;;;;;;;;;10.87;88.95;100051.97;5025105;28;19918;-67
2022/10/01 01:36:58;;;;;;;;;;;;;;;10.84;89.40;100025.03;5030464;28;19913;-67
2022/10/01 01:39:25;;;;;;;;;;;;;;;10.83;90.15;100013.72;5037328;28;19918;-67
2022/10/01 01:41:54;;;;;;;;;;;;;;;10.81;89.26;100002.41;5043779;28;19920;-68
2022/10/01 01:44:25;;;;;;;;;;;;;;;10.80;89.56;100052.78;5050338;28;19917;-68
2022/10/01 01:46:50;;;;;;;;;;;;;;;10.80;90.09;100112.72;5045663;28;20392;-67
2022/10/01 01:49:17;;;;;;;;;;;;;;;10.80;89.68;100084.03;5036727;28;20011;-67
2022/10/01 01:52:03;;;;;;;;;;;;;;;10.85;89.73;100104.94;5035842;28;19999;-67
2022/10/01 01:54:29;;;;;;;;;;;;;;;10.81;90.33;100072.78;5029846;28;19956;-67
2022/10/01 01:56:54;;;;;;;;;;;;;;;10.83;89.87;100060.63;5047085;28;20299;-67
2022/10/01 01:59:19;;;;;;;;;;;;;;;10.79;90.12;100080.56;5040854;28;20017;-67
2022/10/01 02:01:45;;;;;;;;;;;;;;;10.78;89.94;100072.75;5046222;28;19928;-67
2022/10/01 02:04:20;;;;;;;;;;;;;;;10.78;91.48;100070.13;5050403;28;19913;-67
2022/10/01 02:06:52;;;;;;;;;;;;;;;10.77;91.07;100086.63;5032457;28;20016;-67
2022/10/01 02:09:26;;;;;;;;;;;;;;;10.77;90.89;100073.59;5030930;28;19975;-66
2022/10/01 02:11:59;;;;;;;;;;;;;;;10.77;91.40;100082.28;5036737;28;19948;-66
2022/10/01 02:14:31;;;;;;;;;;;;;;;10.73;92.03;100074.41;5044434;28;20349;-67
2022/10/01 02:17:00;;;;;;;;;;;;;;;10.72;91.65;100062.28;5039781;28;19952;-67
2022/10/01 02:19:25;;;;;;;;;;;;;;;10.72;91.88;100067.47;5034923;28;19925;-67
2022/10/01 02:21:58;;;;;;;;;;;;;;;10.71;91.89;100061.38;5034902;28;19921;-67
2022/10/01 02:24:29;;;;;;;;;;;;;;;10.71;91.73;100065.72;5041486;28;19917;-67
2022/10/01 02:26:56;;;;;;;;;;;;;;;10.72;91.86;100057.91;5034401;28;19928;-76
2022/10/01 02:29:22;;;;;;;;;;;;;;;10.71;91.29;100044.88;5032842;28;20003;-75
2022/10/01 02:31:48;;;;;;;;;;;;;;;10.71;92.67;100044.88;5039070;28;20004;-76
2022/10/01 02:34:15;;;;;;;;;;;;;;;10.71;93.16;100037.06;5030548;28;19960;-76
2022/10/01 02:36:43;;;;;;;;;;;;;;;10.70;92.56;100037.91;5030941;28;19917;-75
2022/10/01 02:39:09;;;;;;;;;;;;;;;10.71;92.32;100032.72;5025526;28;20470;-75
2022/10/01 02:41:34;;;;;;;;;;;;;;;10.73;91.98;100014.50;5029936;28;19964;-76
2022/10/01 02:44:02;;;;;;;;;;;;;;;10.74;92.92;100024.06;5025986;28;20308;-76
2022/10/01 02:46:43;;;;;;;;;;;;;;;10.76;92.67;100031.03;5029332;28;20071;-76
2022/10/01 02:49:09;;;;;;;;;;;;;;;10.74;92.64;100032.75;5023510;28;19925;-75
2022/10/01 02:51:43;;;;;;;;;;;;;;;10.77;92.34;100047.53;5022880;28;19921;-75
2022/10/01 02:54:28;;;;;;;;;;;;;;;10.77;92.81;100039.72;5023545;28;20002;-75
2022/10/01 02:59:38;;;;;;;;;;;;;;;10.83;91.89;100050.19;5022754;28;19979;-75
2022/10/01 03:02:03;;;;;;;;;;;;;;;10.84;91.92;100018.06;5024262;28;20457;-76
2022/10/01 03:04:29;;;;;;;;;;;;;;;10.85;92.09;100022.44;5036362;28;19925;-76
2022/10/01 03:06:54;;;;;;;;;;;;;;;10.86;92.20;100023.28;5038608;28;20039;-75
2022/10/01 03:09:19;;;;;;;;;;;;;;;10.87;92.94;100028.53;5036819;28;20525;-75
2022/10/01 03:11:44;;;;;;;;;;;;;;;10.89;92.67;100007.69;5045591;28;19938;-75
2022/10/01 03:14:10;;;;;;;;;;;;;;;10.91;92.93;100016.41;5036866;28;20443;-75
2022/10/01 03:16:35;;;;;;;;;;;;;;;10.91;92.87;100012.06;5039105;28;19921;-75
2022/10/01 03:19:00;;;;;;;;;;;;;;;10.93;92.72;100014.69;5032752;28;19961;-76
2022/10/01 03:21:25;;;;;;;;;;;;;;;10.95;92.62;100013.84;5032429;28;20007;-75
2022/10/01 03:23:51;;;;;;;;;;;;;;;10.94;92.25;100006.88;5035819;28;19994;-76
2022/10/01 03:26:16;;;;;;;;;;;;;;;10.96;92.75;100007.78;5022174;28;20008;-75
2022/10/01 03:28:41;;;;;;;;;;;;;;;10.99;92.22;100016.47;5023885;28;20016;-75
2022/10/01 03:31:07;;;;;;;;;;;;;;;11.01;92.19;100012.13;5022703;28;19927;-76
2022/10/01 03:33:33;;;;;;;;;;;;;;;11.02;92.69;100013.88;5023223;28;19951;-75
2022/10/01 03:35:58;;;;;;;;;;;;;;;11.04;92.37;100018.25;5023285;28;20303;-76
2022/10/01 03:38:23;;;;;;;;;;;;;;;11.04;92.49;100022.59;5036496;28;19944;-75
2022/10/01 03:40:48;;;;;;;;;;;;;;;11.05;92.55;100020.00;5041774;28;19921;-75
2022/10/01 03:43:14;;;;;;;;;;;;;;;11.07;92.07;100020.00;5037634;28;21808;-74
2022/10/01 03:45:39;;;;;;;;;;;;;;;11.08;92.69;100006.09;5028407;28;20359;-75
2022/10/01 03:48:04;;;;;;;;;;;;;;;11.11;92.31;100019.19;5032548;28;19917;-75
2022/10/01 03:50:29;;;;;;;;;;;;;;;11.13;92.39;100012.22;5038356;28;19916;-76
2022/10/01 03:52:54;;;;;;;;;;;;;;;11.17;92.31;100015.75;5044355;28;20480;-76
2022/10/01 03:55:20;;;;;;;;;;;;;;;11.18;92.28;100020.97;5043928;28;19921;-75
2022/10/01 03:57:45;;;;;;;;;;;;;;;11.20;92.10;100005.34;5028257;28;19925;-75
2022/10/01 04:00:12;;;;;;;;;;;;;;;11.21;92.15;100021.00;5039808;28;19939;-75
2022/10/01 04:02:38;;;;;;;;;;;;;;;11.24;92.46;100025.34;5037349;28;19970;-76
2022/10/01 04:05:04;;;;;;;;;;;;;;;11.27;92.78;100030.59;5044034;28;20343;-75
2022/10/01 04:07:29;;;;;;;;;;;;;;;11.28;93.01;100016.69;5033245;28;19925;-75
2022/10/01 04:09:54;;;;;;;;;;;;;;;11.30;92.19;100025.41;5031850;28;19932;-75
2022/10/01 04:12:19;;;;;;;;;;;;;;;11.33;92.68;100042.81;5030772;28;19917;-75
2022/10/01 04:14:44;;;;;;;;;;;;;;;11.35;92.26;100038.47;5036368;28;20396;-76
2022/10/01 04:17:10;;;;;;;;;;;;;;;11.38;92.59;100034.16;5031522;28;19925;-75
2022/10/01 04:19:35;;;;;;;;;;;;;;;11.40;92.86;100039.41;5043699;28;20335;-75
2022/10/01 04:22:00;;;;;;;;;;;;;;;11.44;92.64;100033.31;5029428;28;20027;-74
2022/10/01 04:24:25;;;;;;;;;;;;;;;11.44;92.58;100043.75;5037074;28;19924;-75
2022/10/01 04:26:50;;;;;;;;;;;;;;;11.46;92.03;100035.06;5032160;28;20458;-67
2022/10/01 04:29:16;;;;;;;;;;;;;;;11.49;92.38;100040.31;5028777;28;19917;-67
2022/10/01 04:31:41;;;;;;;;;;;;;;;11.51;92.59;100042.94;5028876;28;19924;-67
2022/10/01 04:34:06;;;;;;;;;;;;;;;11.54;93.12;100042.94;5033462;28;20466;-66
2022/10/01 04:36:31;;;;;;;;;;;;;;;11.57;92.92;100044.72;5030085;28;19924;-67
2022/10/01 04:38:57;;;;;;;;;;;;;;;11.57;92.99;100048.22;5025387;28;19917;-67
2022/10/01 04:41:22;;;;;;;;;;;;;;;11.58;92.60;100044.72;5031904;28;20079;-67
2022/10/01 04:43:47;;;;;;;;;;;;;;;11.60;92.32;100058.66;5031178;28;20350;-67
2022/10/01 04:46:13;;;;;;;;;;;;;;;11.62;92.94;100053.44;5032042;28;20441;-67
2022/10/01 04:48:38;;;;;;;;;;;;;;;11.64;92.72;100047.38;5029228;28;20478;-67
2022/10/01 04:51:03;;;;;;;;;;;;;;;11.65;93.71;100054.34;5025572;28;19909;-67
2022/10/01 04:53:29;;;;;;;;;;;;;;;11.68;93.91;100050.88;5022829;28;19924;-67
2022/10/01 04:55:54;;;;;;;;;;;;;;;11.68;93.17;100052.63;5021403;28;19921;-67
2022/10/01 04:58:19;;;;;;;;;;;;;;;11.69;93.12;100055.25;5022442;28;20335;-75
2022/10/01 05:00:44;;;;;;;;;;;;;;;11.72;93.08;100064.84;5021304;28;20419;-75
2022/10/01 05:03:10;;;;;;;;;;;;;;;11.74;93.16;100068.31;5021808;28;19929;-76
2022/10/01 05:05:36;;;;;;;;;;;;;;;11.76;93.89;100071.78;5021344;28;19972;-75
2022/10/01 05:08:01;;;;;;;;;;;;;;;11.77;92.97;100074.41;5021388;28;20293;-75
2022/10/01 05:10:26;;;;;;;;;;;;;;;11.79;93.10;100064.00;5021057;28;20669;-75
2022/10/01 05:12:52;;;;;;;;;;;;;;;11.80;93.75;100073.56;5023222;28;19921;-74
2022/10/01 05:15:18;;;;;;;;;;;;;;;11.84;92.82;100067.50;5030911;28;20023;-75
2022/10/01 05:17:43;;;;;;;;;;;;;;;11.82;93.04;100079.69;5033015;28;19956;-73
2022/10/01 05:20:14;;;;;;;;;;;;;;;11.84;92.58;100091.84;5035319;28;20474;-75
2022/10/01 05:22:40;;;;;;;;;;;;;;;11.86;92.71;100089.28;5032330;28;19932;-75
2022/10/01 05:25:05;;;;;;;;;;;;;;;11.90;93.31;100091.03;5029652;28;19917;-75
2022/10/01 05:27:35;;;;;;;;;;;;;;;11.92;92.79;100094.53;5041493;28;19921;-67
2022/10/01 05:30:00;;;;;;;;;;;;;;;11.93;92.59;100098.91;5029309;28;20011;-67
2022/10/01 05:32:25;;;;;;;;;;;;;;;11.94;93.00;100087.59;5034919;28;20561;-67
2022/10/01 05:34:51;;;;;;;;;;;;;;;11.95;93.05;100107.63;5029656;28;20388;-67
2022/10/01 05:37:18;;;;;;;;;;;;;;;11.96;93.59;100105.88;5037432;28;19916;-67
2022/10/01 05:39:43;;;;;;;;;;;;;;;11.96;93.29;100106.78;5040439;28;20022;-67
2022/10/01 05:42:08;;;;;;;;;;;;;;;11.98;93.18;100110.25;5027449;28;20463;-67
2022/10/01 05:44:36;;;;;;;;;;;;;;;12.00;93.04;100112.88;5019648;28;19910;-67
2022/10/01 05:47:02;;;;;;;;;;;;;;;12.02;92.88;100119.00;5022504;28;20012;-66
2022/10/01 05:49:27;;;;;;;;;;;;;;;12.04;92.98;100126.84;5032650;28;20003;-67
2022/10/01 05:51:52;;;;;;;;;;;;;;;12.07;93.87;100129.47;5033223;28;20410;-67
2022/10/01 05:54:18;;;;;;;;;;;;;;;12.09;93.10;100123.34;5035236;28;19974;-67
2022/10/01 05:56:43;;;;;;;;;;;;;;;12.10;93.34;100139.91;5023410;28;19949;-67
2022/10/01 05:59:09;;;;;;;;;;;;;;;12.12;93.50;100146.91;5037368;28;19920;-67
2022/10/01 06:01:34;;;;;;;;;;;;;;;12.15;93.09;100138.19;5020167;28;20570;-67
2022/10/01 06:03:59;;;;;;;;;;;;;;;12.15;93.10;100139.09;5022549;28;19924;-67
2022/10/01 06:06:25;;;;;;;;;;;;;;;12.18;92.91;100138.25;5031159;28;19929;-67
2022/10/01 06:08:51;;;;;;;;;;;;;;;12.20;93.32;100133.88;5037048;28;19924;-67
2022/10/01 06:11:17;;;;;;;;;;;;;;;12.21;93.23;100140.88;5043365;28;19924;-67
2022/10/01 06:13:45;;;;;;;;;;;;;;;12.22;93.02;100136.50;5023502;28;19917;-67
2022/10/01 06:16:11;;;;;;;;;;;;;;;12.21;92.92;100148.69;5021526;28;19913;-66
2022/10/01 06:18:36;;;;;;;;;;;;;;;12.21;93.23;100143.47;5020997;28;19921;-67
2022/10/01 06:21:01;;;;;;;;;;;;;;;12.23;93.07;100151.31;5021114;28;20015;-67
2022/10/01 06:23:27;;;;;;;;;;;;;;;12.25;93.14;100152.19;5020298;28;19917;-67
2022/10/01 06:25:52;;;;;;;;;;;;;;;12.25;93.01;100150.47;5019054;28;19921;-67
2022/10/01 06:28:18;;;;;;;;;;;;;;;12.28;93.19;100155.72;5024135;28;19948;-75
2022/10/01 06:30:43;;;;;;;;;;;;;;;12.29;93.13;100162.66;5024007;28;19943;-75
2022/10/01 06:33:10;;;;;;;;;;;;;;;12.30;93.22;100159.19;5023576;28;20008;-75
2022/10/01 06:35:38;;;;;;;;;;;;;;;12.32;93.08;100151.34;5025060;28;20431;-74
2022/10/01 06:38:05;;;;;;;;;;;;;;;12.34;93.34;100166.19;5024335;28;19914;-74
2022/10/01 06:40:30;;;;;;;;;;;;;;;12.38;93.02;100163.56;5024038;28;20051;-74
2022/10/01 06:42:57;;;;;;;;;;;;;;;12.40;93.06;100165.34;5024894;28;20008;-75
2022/10/01 06:45:23;;;;;;;;;;;;;;;12.43;93.03;100170.56;5023698;28;20059;-75
2022/10/01 06:47:55;;;;;;;;;;;;;;;12.46;92.95;100169.72;5025738;28;20412;-74
2022/10/01 06:50:20;;;;;;;;;;;;;;;12.50;92.92;100172.34;5027558;28;20003;-74
2022/10/01 06:52:49;;;;;;;;;;;;;;;12.52;92.97;100172.34;5023175;28;19924;-75
2022/10/01 06:55:17;;;;;;;;;;;;;;;12.56;93.15;100174.13;5024779;28;19917;-75
2022/10/01 06:57:43;;;;;;;;;;;;;;;12.61;93.59;100180.22;5024013;28;19971;-74
2022/10/01 07:00:08;;;;;;;;;;;;;;;12.63;93.43;100177.63;5035849;28;19921;-75
2022/10/01 07:02:34;;;;;;;;;;;;;;;12.67;93.17;100175.06;5026096;28;19917;-74
2022/10/01 07:04:59;;;;;;;;;;;;;;;12.73;93.30;100181.16;5023067;28;19971;-75
2022/10/01 07:07:34;;;;;;;;;;;;;;;12.77;93.92;100182.91;5024703;28;19924;-75
2022/10/01 07:10:00;;;;;;;;;;;;;;;12.80;93.17;100186.44;5025083;28;19925;-75
2022/10/01 07:12:26;;;;;;;;;;;;;;;12.83;93.30;100198.63;5024255;28;19924;-74
2022/10/01 07:14:51;;;;;;;;;;;;;;;12.87;93.24;100192.53;5029009;28;20351;-74
2022/10/01 07:17:17;;;;;;;;;;;;;;;12.91;93.46;100196.06;5020759;28;19921;-75
2022/10/01 07:19:42;;;;;;;;;;;;;;;12.92;93.48;100190.81;5034487;28;19933;-74
2022/10/01 07:22:07;;;;;;;;;;;;;;;12.96;93.65;100199.53;5031988;28;20019;-75
2022/10/01 07:24:32;;;;;;;;;;;;;;;13.01;93.77;100201.31;5034649;28;20403;-75
2022/10/01 07:26:58;;;;;;;;;;;;;;;13.07;94.42;100204.81;5039065;28;19932;-67
2022/10/01 07:29:23;;;;;;;;;;;;;;;13.13;93.76;100210.06;5036099;28;19921;-67
2022/10/01 07:31:49;;;;;;;;;;;;;;;13.18;93.48;100208.34;5031888;28;19921;-67
2022/10/01 07:34:14;;;;;;;;;;;;;;;13.25;93.07;100220.53;5029293;28;19914;-67
2022/10/01 07:36:44;;;;;;;;;;;;;;;13.28;93.41;100220.59;5030489;28;19966;-67
2022/10/01 07:39:09;;;;;;;;;;;;;;;13.29;94.65;100230.16;5026996;28;19996;-67
2022/10/01 07:41:34;;;;;;;;;;;;;;;13.31;93.90;100235.38;5029599;28;20396;-67
2022/10/01 07:44:02;;;;;;;;;;;;;;;13.31;93.87;100230.16;5029318;28;19913;-67
2022/10/01 07:46:27;;;;;;;;;;;;;;;13.32;93.45;100238.00;5027990;28;20345;-66
2022/10/01 07:48:52;;;;;;;;;;;;;;;13.31;93.53;100246.75;5028151;28;20006;-67
2022/10/01 07:51:18;;;;;;;;;;;;;;;13.30;93.57;100258.06;5031483;28;19921;-66
2022/10/01 07:53:43;;;;;;;;;;;;;;;13.29;93.90;100258.06;5044913;28;19917;-67
2022/10/01 07:56:08;;;;;;;;;;;;;;;13.27;94.31;100263.31;5031278;28;20422;-67
2022/10/01 07:58:34;;;;;;;;;;;;;;;13.25;93.90;100267.63;5032284;28;19921;-67
2022/10/01 08:01:02;;;;;;;;;;;;;;;13.25;94.15;100274.63;5031351;28;19921;-68
2022/10/01 08:03:27;;;;;;;;;;;;;;;13.25;94.30;100269.38;5027673;28;19925;-67
2022/10/01 08:05:53;;;;;;;;;;;;;;;13.26;94.52;100265.91;5027609;28;19922;-68
2022/10/01 08:08:18;;;;;;;;;;;;;;;13.26;94.39;100276.38;5031831;28;19996;-68
2022/10/01 08:10:43;;;;;;;;;;;;;;;13.26;94.14;100272.00;5035417;28;19983;-67
2022/10/01 08:13:13;;;;;;;;;;;;;;;13.28;94.40;100278.13;5035369;28;19988;-67
2022/10/01 08:15:38;;;;;;;;;;;;;;;13.28;94.38;100280.75;5043448;28;19921;-67
2022/10/01 08:18:04;;;;;;;;;;;;;;;13.29;94.63;100279.88;5034699;28;19924;-67
2022/10/01 08:20:29;;;;;;;;;;;;;;;13.32;94.53;100287.72;5027981;28;19931;-67
2022/10/01 08:23:01;;;;;;;;;;;;;;;13.36;94.99;100286.91;5030864;28;20391;-67
2022/10/01 08:25:26;;;;;;;;;;;;;;;13.39;94.85;100302.59;5029562;28;19921;-67
2022/10/01 08:27:52;;;;;;;;;;;;;;;13.43;95.30;100303.50;5032057;28;20455;-67
2022/10/01 08:30:17;;;;;;;;;;;;;;;13.45;94.54;100299.13;5030216;28;19924;-66
2022/10/01 08:32:42;;;;;;;;;;;;;;;13.48;94.91;100312.22;5036825;28;19917;-67
2022/10/01 08:35:07;;;;;;;;;;;;;;;13.51;94.67;100307.03;5038270;28;19917;-67
2022/10/01 08:37:33;;;;;;;;;;;;;;;13.57;94.78;100314.03;5031274;28;19921;-67
2022/10/01 08:39:58;;;;;;;;;;;;;;;13.63;94.76;100321.00;5027170;28;19979;-67
2022/10/01 08:42:39;;;;;;;;;;;;;;;13.66;94.70;100316.66;5037268;28;19919;-67
2022/10/01 08:45:09;;;;;;;;;;;;;;;13.68;94.49;100311.44;5044851;28;20296;-67
2022/10/01 08:47:37;;;;;;;;;;;;;;;13.70;94.28;100323.66;5042668;28;20292;-67
2022/10/01 08:50:10;;;;;;;;;;;;;;;13.71;94.43;100324.50;5037482;28;19917;-67
2022/10/01 08:52:39;;;;;;;;;;;;;;;13.70;94.35;100317.53;5032940;28;20339;-67
2022/10/01 08:55:16;;;;;;;;;;;;;;;13.73;94.37;100320.19;5030308;28;19921;-67
2022/10/01 08:57:45;;;;;;;;;;;;;;;13.74;94.53;100327.13;5032790;28;19964;-75
2022/10/01 09:00:13;;;;;;;;;;;;;;;13.74;94.44;100324.53;5031246;28;19917;-75
2022/10/01 09:02:39;;;;;;;;;;;;;;;13.72;94.05;100326.28;5033052;28;20039;-75
2022/10/01 09:05:06;;;;;;;;;;;;;;;13.71;94.12;100332.38;5031329;28;19974;-75
2022/10/01 09:07:31;;;;;;;;;;;;;;;13.74;94.59;100328.03;5036158;28;19921;-75
2022/10/01 09:10:03;;;;;;;;;;;;;;;13.77;94.40;100334.13;5031349;28;19917;-75
2022/10/01 09:12:35;;;;;;;;;;;;;;;13.79;94.54;100335.88;5022948;28;19917;-75
2022/10/01 09:15:00;;;;;;;;;;;;;;;13.81;94.17;100338.50;5029377;28;20047;-75
2022/10/01 09:17:43;;;;;;;;;;;;;;;13.86;94.10;100347.22;5030352;28;20582;-75
2022/10/01 09:20:18;;;;;;;;;;;;;;;13.93;94.34;100350.75;5031867;28;19970;-75
2022/10/01 09:22:50;;;;;;;;;;;;;;;13.98;94.25;100354.28;5032315;28;20491;-76
2022/10/01 09:25:21;;;;;;;;;;;;;;;14.04;94.79;100356.88;5032918;28;19916;-75
2022/10/01 09:27:46;;;;;;;;;;;;;;;14.11;95.32;100356.03;5031999;28;19969;-75
2022/10/01 09:30:11;;;;;;;;;;;;;;;14.21;94.64;100367.41;5040239;28;20510;-76
2022/10/01 09:32:40;;;;;;;;;;;;;;;14.26;94.34;100373.50;5026142;28;19921;-75
2022/10/01 09:35:19;;;;;;;;;;;;;;;14.33;94.64;100362.16;5030811;28;20031;-74
2022/10/01 09:37:50;;;;;;;;;;;;;;;14.42;94.75;100366.50;5047412;28;20008;-75
2022/10/01 09:40:34;;;;;;;;;;;;;;;14.52;94.41;100372.63;5033007;28;19924;-75
2022/10/01 09:43:00;;;;;;;;;;;;;;;14.63;93.58;100376.16;5048521;28;19990;-76
2022/10/01 09:45:26;;;;;;;;;;;;;;;14.71;93.56;100369.16;5048050;28;20011;-75
2022/10/01 09:47:54;;;;;;;;;;;;;;;14.79;93.28;100366.53;5025897;28;20464;-75
2022/10/01 09:50:24;;;;;;;;;;;;;;;14.85;92.98;100360.41;5033647;28;20003;-76
2022/10/01 09:52:50;;;;;;;;;;;;;;;14.89;92.00;100360.41;5046616;28;19938;-75
2022/10/01 09:55:18;;;;;;;;;;;;;;;14.97;91.72;100367.38;5047436;28;19975;-75
2022/10/01 09:57:52;;;;;;;;;;;;;;;15.07;91.80;100369.97;5050059;28;19947;-74
2022/10/01 10:00:18;;;;;;;;;;;;;;;15.20;92.07;100365.56;5033096;28;19917;-76
2022/10/01 10:02:44;;;;;;;;;;;;;;;15.35;91.71;100375.16;5033606;28;20323;-76
2022/10/01 10:05:14;;;;;;;;;;;;;;;15.46;91.34;100375.94;5032064;28;19925;-76
2022/10/01 10:07:43;;;;;;;;;;;;;;;15.63;90.85;100367.16;5036743;28;19975;-75
2022/10/01 10:10:15;;;;;;;;;;;;;;;15.81;90.84;100377.59;5037201;28;19917;-76
2022/10/01 10:12:40;;;;;;;;;;;;;;;15.99;89.07;100384.47;5038794;28;20380;-73
2022/10/01 10:15:07;;;;;;;;;;;;;;;16.04;89.13;100392.34;5033970;28;19943;-74
2022/10/01 10:17:34;;;;;;;;;;;;;;;16.00;87.67;100403.75;5038331;28;19925;-74
2022/10/01 10:19:59;;;;;;;;;;;;;;;15.96;87.57;100396.75;5047009;28;19923;-74
2022/10/01 10:22:26;;;;;;;;;;;;;;;15.97;87.26;100409.03;5047765;28;19917;-74
2022/10/01 10:24:52;;;;;;;;;;;;;;;16.11;87.98;100416.84;5054186;28;19920;-73
2022/10/01 10:27:25;;;;;;;;;;;;;;;16.28;88.06;100411.44;5038245;28;19921;-73
2022/10/01 10:29:59;;;;;;;;;;;;;;;16.50;88.54;100407.78;5053900;28;19924;-73
2022/10/01 10:32:25;;;;;;;;;;;;;;;16.66;87.00;100410.28;5047707;28;20003;-74
2022/10/01 10:34:52;;;;;;;;;;;;;;;16.77;87.58;100420.72;5054083;28;19995;-74
2022/10/01 10:37:20;;;;;;;;;;;;;;;16.88;87.41;100425.94;5054094;28;20530;-73
2022/10/01 10:39:49;;;;;;;;;;;;;;;17.01;87.97;100430.19;5054248;28;19916;-74
2022/10/01 10:42:15;;;;;;;;;;;;;;;17.17;88.46;100431.75;5049841;28;20311;-73
2022/10/01 10:44:42;;;;;;;;;;;;;;;17.37;88.17;100431.56;5030462;28;20377;-73
2022/10/01 10:47:13;;;;;;;;;;;;;;;17.49;87.64;100433.16;5034220;28;20339;-73
2022/10/01 10:49:46;;;;;;;;;;;;;;;17.52;86.77;100440.19;5053739;28;19917;-73
2022/10/01 10:52:19;;;;;;;;;;;;;;;17.59;86.65;100444.47;5050788;28;19923;-73
2022/10/01 10:54:47;;;;;;;;;;;;;;;17.67;86.84;100457.56;5044694;28;19912;-73
2022/10/01 10:57:27;;;;;;;;;;;;;;;17.66;84.92;100458.47;5053327;28;19991;-73
2022/10/01 11:00:01;;;;;;;;;;;;;;;17.49;84.76;100462.16;5053640;28;19909;-73
2022/10/01 11:02:30;;;;;;;;;;;;;;;17.31;85.25;100462.38;5049197;28;19921;-73
2022/10/01 11:04:57;;;;;;;;;;;;;;;17.13;84.69;100469.56;5037980;28;19919;-73
2022/10/01 11:07:24;;;;;;;;;;;;;;;17.06;84.39;100481.03;5026496;28;19916;-67
2022/10/01 11:10:02;;;;;;;;;;;;;;;17.14;84.89;100480.97;5053266;28;20133;-66
2022/10/01 11:12:38;;;;;;;;;;;;;;;17.34;85.25;100481.63;5047820;28;19917;-66
2022/10/01 11:15:05;;;;;;;;;;;;;;;17.44;84.55;100486.78;5046292;28;19917;-66
2022/10/01 11:17:54;;;;;;;;;;;;;;;17.36;83.76;100492.16;5052998;28;20400;-65
2022/10/01 11:20:36;;;;;;;;;;;;;;;17.20;83.36;100497.56;5052977;28;19917;-66
2022/10/01 11:23:01;;;;;;;;;;;;;;;17.06;82.39;100498.56;5052977;28;19913;-66
2022/10/01 11:25:26;;;;;;;;;;;;;;;17.07;82.54;100502.97;5038038;28;19920;-66
2022/10/01 11:27:55;;;;;;;;;;;;;;;17.10;83.21;100498.53;5053134;28;20117;-66
2022/10/01 11:30:25;;;;;;;;;;;;;;;17.16;83.23;100510.75;5052854;28;19916;-66
2022/10/01 11:33:02;;;;;;;;;;;;;;;17.13;80.80;100509.06;5040850;28;20328;-66
2022/10/01 11:35:48;;;;;;;;;;;;;;;17.23;81.06;100508.97;5030141;28;20333;-66
2022/10/01 11:38:17;;;;;;;;;;;;;;;17.40;81.28;100512.31;5035711;28;19921;-73
2022/10/01 11:40:44;;;;;;;;;;;;;;;17.56;80.56;100519.16;5045592;28;19919;-72
2022/10/01 11:43:18;;;;;;;;;;;;;;;17.80;82.10;100524.16;5052662;28;19923;-74
2022/10/01 11:45:46;;;;;;;;;;;;;;;17.93;82.00;100533.72;5043713;28;19921;-72
2022/10/01 11:48:24;;;;;;;;;;;;;;;17.90;82.21;100533.75;5049014;28;19952;-73
2022/10/01 11:50:51;;;;;;;;;;;;;;;17.84;82.29;100541.69;5042325;28;19916;-74
2022/10/01 11:53:31;;;;;;;;;;;;;;;17.69;81.82;100533.06;5052208;28;19917;-74
2022/10/01 11:58:53;;;;;;;;;;;;;;;17.30;82.76;100547.53;5039662;28;19920;-73
2022/10/01 12:01:38;;;;;;;;;;;;;;;17.15;82.85;100552.03;5048361;28;19948;-74
2022/10/01 12:04:26;;;;;;;;;;;;;;;16.95;82.97;100554.81;5052377;28;19966;-74
2022/10/01 12:06:57;;;;;;;;;;;;;;;16.78;83.54;100547.00;5040281;28;19947;-74
2022/10/01 12:09:22;;;;;;;;;;;;;;;16.66;83.75;100560.25;5052089;28;20303;-74
2022/10/01 12:11:53;;;;;;;;;;;;;;;16.52;84.15;100565.56;5052020;28;19917;-73
2022/10/01 12:14:21;;;;;;;;;;;;;;;16.40;83.65;100563.88;5045100;28;20657;-73
2022/10/01 12:16:46;;;;;;;;;;;;;;;16.25;83.97;100566.56;5039949;28;19921;-73
2022/10/01 12:19:20;;;;;;;;;;;;;;;16.15;83.85;100582.41;5051757;28;19913;-73
2022/10/01 12:21:52;;;;;;;;;;;;;;;16.11;83.15;100580.66;5051706;28;19916;-73
2022/10/01 12:24:19;;;;;;;;;;;;;;;16.11;83.14;100578.03;5051685;28;19955;-73
2022/10/01 12:26:47;;;;;;;;;;;;;;;16.18;82.78;100581.53;5041232;28;19960;-73
2022/10/01 12:29:20;;;;;;;;;;;;;;;16.31;83.33;100584.97;5051733;28;19936;-73
2022/10/01 12:31:52;;;;;;;;;;;;;;;16.53;84.36;100580.47;5043340;28;20381;-74
2022/10/01 12:34:27;;;;;;;;;;;;;;;16.72;83.93;100583.88;5043118;28;20291;-73
2022/10/01 12:36:53;;;;;;;;;;;;;;;16.91;83.09;100592.56;5041641;28;19941;-66
2022/10/01 12:39:36;;;;;;;;;;;;;;;17.05;82.99;100592.47;5051530;28;19924;-66
2022/10/01 12:42:02;;;;;;;;;;;;;;;17.10;82.54;100593.31;5051440;28;20442;-66
2022/10/01 12:44:27;;;;;;;;;;;;;;;17.13;81.87;100595.94;5046612;28;19921;-66